Aviation Digital Data Service (ADDS)

Output produced by METARs form (0157 UTC 06 December 2020)
found at http://aviationweather.gov/metar/data/
 
TAF EPDA 052300Z 0600/0609 15006KT CAVOK 
     PROB30 
     TEMPO 0600/0609 VRB03KT 5000 BR